createdAt,value
2022-10-24T00:01:28.083Z,6.42
2022-10-24T00:03:55.859Z,6.24
2022-10-24T00:06:32.800Z,6.40
2022-10-24T00:09:16.323Z,6.27
2022-10-24T00:11:58.899Z,6.30
2022-10-24T00:14:27.005Z,6.13
2022-10-24T00:16:54.707Z,6.20
2022-10-24T00:19:24.768Z,6.30
2022-10-24T00:21:55.557Z,6.31
2022-10-24T00:24:26.438Z,6.17
2022-10-24T00:26:54.273Z,6.10
2022-10-24T00:29:21.733Z,6.22
2022-10-24T00:31:53.004Z,6.30
2022-10-24T00:34:23.578Z,6.17
2022-10-24T00:36:53.325Z,6.19
2022-10-24T00:39:23.742Z,6.12
2022-10-24T00:42:02.519Z,6.00
2022-10-24T00:45:19.934Z,6.00
2022-10-24T00:47:57.277Z,6.09
2022-10-24T00:50:26.815Z,6.25
2022-10-24T00:52:55.633Z,6.12
2022-10-24T00:55:26.867Z,6.05
2022-10-24T00:58:08.824Z,6.25
2022-10-24T01:00:41.025Z,6.04
2022-10-24T01:03:20.217Z,6.22
2022-10-24T01:06:24.869Z,6.04
2022-10-24T01:09:22.429Z,6.18
2022-10-24T01:13:02.214Z,6.08
2022-10-24T01:16:10.740Z,5.92
2022-10-24T01:19:18.190Z,6.10
2022-10-24T01:22:48.254Z,6.16
2022-10-24T01:25:43.915Z,5.99
2022-10-24T01:28:21.491Z,5.97
2022-10-24T01:31:30.837Z,5.96
2022-10-24T01:34:26.753Z,5.80
2022-10-24T01:37:15.004Z,5.75
2022-10-24T01:39:48.891Z,5.79
2022-10-24T01:42:25.055Z,5.88
2022-10-24T01:45:04.731Z,5.80
2022-10-24T01:47:42.449Z,5.81
2022-10-24T01:50:28.724Z,5.86
2022-10-24T01:52:58.783Z,5.69
2022-10-24T01:55:32.399Z,5.84
2022-10-24T01:58:02.795Z,5.70
2022-10-24T02:00:33.013Z,5.72
2022-10-24T02:03:24.772Z,5.50
2022-10-24T02:06:41.197Z,5.58
2022-10-24T02:09:26.648Z,5.60
2022-10-24T02:12:01.883Z,5.54
2022-10-24T02:14:38.452Z,5.47
2022-10-24T02:17:13.716Z,5.65
2022-10-24T02:19:59.398Z,5.66
2022-10-24T02:22:46.169Z,5.73
2022-10-24T02:25:23.316Z,5.62
2022-10-24T02:28:07.323Z,5.56
2022-10-24T02:31:17.805Z,5.53
2022-10-24T02:45:49.627Z,5.63
2022-10-24T02:48:40.609Z,5.59
2022-10-24T02:53:11.796Z,5.68
2022-10-24T02:55:13.667Z,5.72
2022-10-24T02:58:18.286Z,5.75
2022-10-24T03:00:50.483Z,5.84
2022-10-24T03:03:38.455Z,5.58
2022-10-24T03:10:26.753Z,5.46
2022-10-24T03:13:28.698Z,5.55
2022-10-24T03:16:35.626Z,5.64
2022-10-24T03:20:15.443Z,5.34
2022-10-24T03:23:27.008Z,5.60
2022-10-24T03:26:43.614Z,5.49
2022-10-24T03:31:06.442Z,5.35
2022-10-24T03:32:40.287Z,5.36
2022-10-24T03:35:38.658Z,5.49
2022-10-24T03:38:09.539Z,5.40
2022-10-24T03:40:38.548Z,5.46
2022-10-24T03:43:21.300Z,5.59
2022-10-24T03:45:53.211Z,5.41
2022-10-24T03:48:20.426Z,5.55
2022-10-24T03:50:50.731Z,5.46
2022-10-24T03:53:22.097Z,5.42
2022-10-24T03:55:49.659Z,5.54
2022-10-24T03:58:17.562Z,5.57
2022-10-24T04:00:44.941Z,5.48
2022-10-24T04:03:12.527Z,5.56
2022-10-24T04:05:40.386Z,5.54
2022-10-24T04:08:07.671Z,5.57
2022-10-24T04:10:35.158Z,5.45
2022-10-24T04:13:02.965Z,5.64
2022-10-24T04:15:33.009Z,5.46
2022-10-24T04:18:00.337Z,5.69
2022-10-24T04:20:28.161Z,5.57
2022-10-24T04:22:55.786Z,5.60
2022-10-24T04:25:23.200Z,5.63
2022-10-24T04:27:50.688Z,5.69
2022-10-24T04:30:17.956Z,5.68
2022-10-24T04:32:46.202Z,5.80
2022-10-24T04:35:14.473Z,5.55
2022-10-24T04:37:42.496Z,5.78
2022-10-24T04:40:10.216Z,5.65
2022-10-24T04:42:47.891Z,5.65
2022-10-24T04:45:15.573Z,5.73
2022-10-24T04:47:44.260Z,5.69
2022-10-24T04:50:11.913Z,5.91
2022-10-24T04:52:40.791Z,5.96
2022-10-24T04:55:08.617Z,5.94
2022-10-24T04:57:36.020Z,5.98
2022-10-24T05:00:04.615Z,6.00
2022-10-24T05:02:32.019Z,5.98
2022-10-24T05:05:02.083Z,5.84
2022-10-24T05:07:32.353Z,5.81
2022-10-24T05:10:00.170Z,5.93
2022-10-24T05:12:29.779Z,5.82
2022-10-24T05:14:57.378Z,5.92
2022-10-24T05:17:24.813Z,5.93
2022-10-24T05:19:52.286Z,5.89
2022-10-24T05:22:20.820Z,5.88
2022-10-24T05:24:48.083Z,5.86
2022-10-24T05:27:17.712Z,6.00
2022-10-24T05:29:45.150Z,5.90
2022-10-24T05:32:13.647Z,6.19
2022-10-24T05:34:48.594Z,6.09
2022-10-24T05:37:16.955Z,6.10
2022-10-24T05:39:47.474Z,6.07
2022-10-24T05:42:15.068Z,6.27
2022-10-24T05:44:42.636Z,6.04
2022-10-24T05:47:10.017Z,6.04
2022-10-24T05:49:37.475Z,6.07
2022-10-24T05:52:05.458Z,6.22
2022-10-24T05:54:42.576Z,6.36
2022-10-24T05:57:20.293Z,6.25
2022-10-24T05:59:47.759Z,6.21
2022-10-24T06:02:20.623Z,6.21
2022-10-24T06:04:48.779Z,6.23
2022-10-24T06:07:16.168Z,6.19
2022-10-24T06:09:43.420Z,6.28
2022-10-24T06:12:13.736Z,6.22
2022-10-24T06:14:41.749Z,6.31
2022-10-24T06:17:12.274Z,6.35
2022-10-24T06:19:40.676Z,6.45
2022-10-24T06:22:11.997Z,6.34
2022-10-24T06:24:39.512Z,6.39
2022-10-24T06:27:07.520Z,6.54
2022-10-24T06:29:35.944Z,6.51
2022-10-24T06:32:05.313Z,6.52
2022-10-24T06:34:32.789Z,6.67
2022-10-24T06:37:00.418Z,6.68
2022-10-24T06:39:27.732Z,6.78
2022-10-24T06:42:19.920Z,6.91
2022-10-24T06:44:47.289Z,6.96
2022-10-24T06:47:15.642Z,7.03
2022-10-24T06:49:42.965Z,7.14
2022-10-24T06:52:19.506Z,7.29
2022-10-24T06:54:46.780Z,7.44
2022-10-24T06:57:14.233Z,7.42
2022-10-24T06:59:41.517Z,7.26
2022-10-24T07:02:13.306Z,7.13
2022-10-24T07:05:50.618Z,7.18
2022-10-24T07:07:52.348Z,7.04
2022-10-24T07:10:19.806Z,7.04
2022-10-24T07:12:51.111Z,7.21
2022-10-24T07:15:21.803Z,7.21
2022-10-24T07:17:51.717Z,7.36
2022-10-24T07:20:19.178Z,7.23
2022-10-24T07:22:48.329Z,7.55
2022-10-24T07:25:19.304Z,7.49
2022-10-24T07:27:46.851Z,7.44
2022-10-24T07:30:18.323Z,7.49
2022-10-24T07:32:47.135Z,7.70
2022-10-24T07:35:15.133Z,7.75
2022-10-24T07:37:53.887Z,7.84
2022-10-24T07:40:21.625Z,7.82
2022-10-24T07:42:56.817Z,8.17
2022-10-24T07:45:30.425Z,8.15
2022-10-24T07:48:01.097Z,8.28
2022-10-24T07:50:29.771Z,9.10
2022-10-24T07:52:58.742Z,9.63
2022-10-24T07:55:33.029Z,9.27
2022-10-24T07:58:08.328Z,9.07
2022-10-24T08:00:38.249Z,9.06
2022-10-24T08:03:36.878Z,8.71
2022-10-24T08:06:09.087Z,8.48
2022-10-24T08:08:40.449Z,8.48
2022-10-24T08:11:18.242Z,8.16
2022-10-24T08:13:50.142Z,8.12
2022-10-24T08:16:21.701Z,8.07
2022-10-24T08:18:55.666Z,8.30
2022-10-24T08:21:24.380Z,8.45
2022-10-24T08:23:53.913Z,8.74
2022-10-24T08:26:26.192Z,8.68
2022-10-24T08:28:55.927Z,8.69
2022-10-24T08:31:26.523Z,8.31
2022-10-24T08:33:56.523Z,8.12
2022-10-24T08:36:30.392Z,7.85
2022-10-24T08:38:59.321Z,7.78
2022-10-24T08:41:43.160Z,7.56
2022-10-24T08:44:30.408Z,7.41
2022-10-24T08:47:08.490Z,7.22
2022-10-24T08:49:52.664Z,7.14
2022-10-24T08:52:35.575Z,7.08
2022-10-24T08:55:30.995Z,7.16
2022-10-24T08:58:06.727Z,7.32
2022-10-24T09:00:44.208Z,7.28
2022-10-24T09:06:27.969Z,7.17
2022-10-24T09:08:56.753Z,7.24
2022-10-24T09:11:45.079Z,7.39
2022-10-24T09:14:24.796Z,7.30
2022-10-24T09:16:56.927Z,7.19
2022-10-24T09:19:32.135Z,7.17
2022-10-24T09:22:02.870Z,7.32
2022-10-24T09:24:42.959Z,7.39
2022-10-24T09:29:53.278Z,8.26
2022-10-24T09:32:46.348Z,8.44
2022-10-24T09:35:20.994Z,8.05
2022-10-24T09:37:56.048Z,7.86
2022-10-24T09:40:51.006Z,8.02
2022-10-24T09:43:34.485Z,7.71
2022-10-24T09:46:06.609Z,8.06
2022-10-24T09:49:15.534Z,8.03
2022-10-24T09:52:21.750Z,8.07
2022-10-24T09:55:25.225Z,8.47
2022-10-24T09:58:00.020Z,9.43
2022-10-24T10:00:36.584Z,10.25
2022-10-24T10:03:23.449Z,10.72
2022-10-24T10:05:54.831Z,10.49
2022-10-24T10:08:31.448Z,9.92
2022-10-24T10:11:10.387Z,9.66
2022-10-24T10:13:52.990Z,9.15
2022-10-24T10:16:41.582Z,8.68
2022-10-24T10:19:24.504Z,8.98
2022-10-24T10:22:00.912Z,9.07
2022-10-24T10:24:40.819Z,9.60
2022-10-24T10:27:33.167Z,9.93
2022-10-24T10:30:24.583Z,10.27
2022-10-24T10:33:29.450Z,10.87
2022-10-24T10:36:18.515Z,11.54
2022-10-24T10:39:06.199Z,11.55
2022-10-24T10:42:17.215Z,12.01
2022-10-24T10:45:17.706Z,12.06
2022-10-24T10:48:03.309Z,11.93
2022-10-24T10:50:58.943Z,11.68
2022-10-24T10:53:46.982Z,11.20
2022-10-24T10:56:20.254Z,11.33
2022-10-24T10:59:08.712Z,11.48
2022-10-24T11:02:25.140Z,11.74
2022-10-24T11:06:04.706Z,12.17
2022-10-24T11:09:01.432Z,12.86
2022-10-24T11:11:41.889Z,13.00
2022-10-24T11:14:39.923Z,13.55
2022-10-24T11:17:25.760Z,14.33
2022-10-24T11:20:13.662Z,15.00
2022-10-24T11:22:52.933Z,15.31
2022-10-24T11:26:06.050Z,15.44
2022-10-24T11:29:20.332Z,14.84
2022-10-24T11:32:40.247Z,13.33
2022-10-24T11:35:34.732Z,12.55
2022-10-24T11:38:23.654Z,11.27
2022-10-24T11:41:05.007Z,10.29
2022-10-24T11:43:44.599Z,9.77
2022-10-24T11:46:32.712Z,8.98
2022-10-24T11:49:26.352Z,8.58
2022-10-24T11:52:09.913Z,8.53
2022-10-24T11:55:03.340Z,8.83
2022-10-24T11:57:37.556Z,9.53
2022-10-24T12:00:05.638Z,9.72
2022-10-24T12:03:17.788Z,10.48
2022-10-24T12:06:05.074Z,10.57
2022-10-24T12:09:15.515Z,11.08
2022-10-24T12:12:08.734Z,11.44
2022-10-24T12:15:06.492Z,11.36
2022-10-24T12:17:54.795Z,10.85
2022-10-24T12:20:33.958Z,10.18
2022-10-24T12:23:46.774Z,9.22
2022-10-24T12:26:41.064Z,8.97
2022-10-24T12:29:26.251Z,8.63
2022-10-24T12:32:01.125Z,8.45
2022-10-24T12:34:50.053Z,8.65
2022-10-24T12:37:27.288Z,8.53
2022-10-24T12:40:03.621Z,8.19
2022-10-24T12:42:52.454Z,8.22
2022-10-24T12:48:47.512Z,7.75
2022-10-24T12:52:12.354Z,7.78
2022-10-24T12:54:49.907Z,7.50
2022-10-24T12:57:32.582Z,7.55
2022-10-24T13:00:31.971Z,7.22
2022-10-24T13:09:10.953Z,7.31
2022-10-24T13:12:42.273Z,7.19
2022-10-24T13:15:39.597Z,7.17
2022-10-24T13:18:32.603Z,7.13
2022-10-24T13:21:36.934Z,7.09
2022-10-24T13:24:38.354Z,6.79
2022-10-24T13:27:13.147Z,6.97
2022-10-24T13:29:44.382Z,6.90
2022-10-24T13:32:36.471Z,6.77
2022-10-24T13:35:08.974Z,6.96
2022-10-24T13:38:00.660Z,6.77
2022-10-24T13:40:48.562Z,6.82
2022-10-24T13:43:22.669Z,6.63
2022-10-24T13:45:53.521Z,6.76
2022-10-24T13:48:37.308Z,6.69
2022-10-24T13:51:20.210Z,6.75
2022-10-24T13:53:54.719Z,6.73
2022-10-24T13:56:27.293Z,6.75
2022-10-24T14:01:41.770Z,6.43
2022-10-24T14:04:14.403Z,6.64
2022-10-24T14:06:47.340Z,6.41
2022-10-24T14:09:15.380Z,6.41
2022-10-24T14:11:51.967Z,6.47
2022-10-24T14:14:53.129Z,6.56
2022-10-24T14:17:28.472Z,6.51
2022-10-24T14:20:22.423Z,6.30
2022-10-24T14:22:57.966Z,6.12
2022-10-24T14:25:36.476Z,6.30
2022-10-24T14:28:25.018Z,6.27
2022-10-24T14:31:06.524Z,6.23
2022-10-24T14:33:46.764Z,6.13
2022-10-24T14:36:19.000Z,6.19
2022-10-24T14:38:51.661Z,6.08
2022-10-24T14:41:49.183Z,6.21
2022-10-24T14:44:24.462Z,6.14
2022-10-24T14:47:06.149Z,6.11
2022-10-24T14:49:40.275Z,5.84
2022-10-24T14:52:13.026Z,5.97
2022-10-24T14:54:52.766Z,6.04
2022-10-24T14:57:23.024Z,5.83
2022-10-24T14:59:54.264Z,5.84
2022-10-24T15:03:33.855Z,6.00
2022-10-24T15:06:24.448Z,5.70
2022-10-24T15:09:20.592Z,5.85
2022-10-24T15:16:31.619Z,5.95
2022-10-24T15:19:06.281Z,5.94
2022-10-24T15:22:04.817Z,5.89
2022-10-24T15:24:35.664Z,5.81
2022-10-24T15:27:16.013Z,5.73
2022-10-24T15:30:17.943Z,5.69
2022-10-24T15:33:28.252Z,5.87
2022-10-24T15:36:01.198Z,5.77
2022-10-24T15:38:40.491Z,5.60
2022-10-24T15:41:09.984Z,5.73
2022-10-24T15:43:44.228Z,5.49
2022-10-24T15:46:14.243Z,5.52
2022-10-24T15:48:52.071Z,5.62
2022-10-24T15:51:25.270Z,5.59
2022-10-24T15:53:55.240Z,5.56
2022-10-24T15:56:28.223Z,5.27
2022-10-24T15:58:57.017Z,5.17
2022-10-24T16:01:37.300Z,5.39
2022-10-24T16:04:11.729Z,5.27
2022-10-24T16:09:47.559Z,5.24
2022-10-24T16:12:22.649Z,5.39
2022-10-24T16:14:55.541Z,5.14
2022-10-24T16:17:23.581Z,5.46
2022-10-24T16:19:57.198Z,5.23
2022-10-24T16:22:30.828Z,5.39
2022-10-24T16:24:58.125Z,5.28
2022-10-24T16:27:25.625Z,5.24
2022-10-24T16:29:56.563Z,5.16
2022-10-24T16:32:55.759Z,5.42
2022-10-24T16:35:30.213Z,5.09
2022-10-24T16:38:01.555Z,5.26
2022-10-24T16:40:30.426Z,5.03
2022-10-24T16:43:25.291Z,5.35
2022-10-24T16:46:01.554Z,5.17
2022-10-24T16:48:31.088Z,5.12
2022-10-24T16:50:58.442Z,5.15
2022-10-24T16:53:30.616Z,5.03
2022-10-24T16:55:59.414Z,5.03
2022-10-24T16:58:27.819Z,5.02
2022-10-24T17:01:03.191Z,5.10
2022-10-24T17:03:30.789Z,4.96
2022-10-24T17:05:59.837Z,5.12
2022-10-24T17:08:27.781Z,5.21
2022-10-24T17:10:56.077Z,5.03
2022-10-24T17:13:24.777Z,4.90
2022-10-24T17:15:52.427Z,5.06
2022-10-24T17:18:24.033Z,5.04
2022-10-24T17:20:51.797Z,5.00
2022-10-24T17:23:23.117Z,4.72
2022-10-24T17:25:50.605Z,4.84
2022-10-24T17:28:17.899Z,4.76
2022-10-24T17:30:45.350Z,4.72
2022-10-24T17:33:14.083Z,4.75
2022-10-24T17:35:46.852Z,4.71
2022-10-24T17:38:38.215Z,4.69
2022-10-24T17:41:18.403Z,4.54
2022-10-24T17:43:45.896Z,4.44
2022-10-24T17:46:13.831Z,4.52
2022-10-24T17:48:41.261Z,4.49
2022-10-24T17:51:15.204Z,4.48
2022-10-24T17:53:42.755Z,4.55
2022-10-24T17:56:37.899Z,4.34
2022-10-24T18:00:07.891Z,4.23
2022-10-24T18:02:13.716Z,4.24
2022-10-24T18:04:43.051Z,4.34
2022-10-24T18:07:12.373Z,4.33
2022-10-24T18:09:40.320Z,4.26
2022-10-24T18:12:07.951Z,4.12
2022-10-24T18:14:37.667Z,4.18
2022-10-24T18:17:06.148Z,4.16
2022-10-24T18:19:33.601Z,4.10
2022-10-24T18:22:03.765Z,4.11
2022-10-24T18:24:34.092Z,4.18
2022-10-24T18:27:07.172Z,4.21
2022-10-24T18:29:34.675Z,4.02
2022-10-24T18:32:16.227Z,4.09
2022-10-24T18:34:43.484Z,4.03
2022-10-24T18:37:14.266Z,3.95
2022-10-24T18:39:42.045Z,3.83
2022-10-24T18:43:00.079Z,3.96
2022-10-24T18:48:19.404Z,3.85
2022-10-24T18:51:20.521Z,3.66
2022-10-24T18:53:48.063Z,3.84
2022-10-24T18:56:18.669Z,3.75
2022-10-24T18:58:51.213Z,3.47
2022-10-24T19:01:58.257Z,3.74
2022-10-24T19:04:33.704Z,3.48
2022-10-24T19:07:03.648Z,3.63
2022-10-24T19:09:31.092Z,3.68
2022-10-24T19:11:58.643Z,3.61
2022-10-24T19:14:26.189Z,3.56
2022-10-24T19:16:55.410Z,3.56
2022-10-24T19:19:30.761Z,3.54
2022-10-24T19:21:59.375Z,3.35
2022-10-24T19:24:26.922Z,3.34
2022-10-24T19:26:57.338Z,3.55
2022-10-24T19:29:28.327Z,3.63
2022-10-24T19:31:59.931Z,3.43
2022-10-24T19:34:29.543Z,3.70
2022-10-24T19:36:59.347Z,3.52
2022-10-24T19:39:37.031Z,3.41
2022-10-24T19:42:08.261Z,3.53
2022-10-24T19:44:37.828Z,3.63
2022-10-24T19:47:10.942Z,3.44
2022-10-24T19:49:38.532Z,3.51
2022-10-24T19:52:10.448Z,3.46
2022-10-24T19:54:37.909Z,3.34
2022-10-24T19:57:06.182Z,3.51
2022-10-24T19:59:38.574Z,3.33
2022-10-24T20:02:06.452Z,3.38
2022-10-24T20:04:35.890Z,3.29
2022-10-24T20:07:04.344Z,3.42
2022-10-24T20:09:35.728Z,3.36
2022-10-24T20:12:05.977Z,3.36
2022-10-24T20:14:35.819Z,3.52
2022-10-24T20:17:11.399Z,3.36
2022-10-24T20:19:39.022Z,3.16
2022-10-24T20:22:08.839Z,3.39
2022-10-24T20:24:38.376Z,3.45
2022-10-24T20:29:36.816Z,3.33
2022-10-24T20:32:04.750Z,3.31
2022-10-24T20:34:32.136Z,3.21
2022-10-24T20:37:01.343Z,3.48
2022-10-24T20:39:28.927Z,3.51
2022-10-24T20:41:58.638Z,3.39
2022-10-24T20:44:28.114Z,3.48
2022-10-24T20:46:57.008Z,3.60
2022-10-24T20:49:29.420Z,3.95
2022-10-24T20:52:01.261Z,3.91
2022-10-24T20:54:31.574Z,3.84
2022-10-24T20:56:59.432Z,3.69
2022-10-24T20:59:26.892Z,3.60
2022-10-24T21:01:57.411Z,3.46
2022-10-24T21:04:25.545Z,3.52
2022-10-24T21:06:55.657Z,3.42
2022-10-24T21:09:28.334Z,3.32
2022-10-24T21:16:02.429Z,3.07
2022-10-24T21:18:30.197Z,3.29
2022-10-24T21:20:58.864Z,3.18
2022-10-24T21:23:28.895Z,3.02
2022-10-24T21:26:15.289Z,2.96
2022-10-24T21:28:46.949Z,3.19
2022-10-24T21:31:22.491Z,3.04
2022-10-24T21:33:50.881Z,2.98
2022-10-24T21:36:24.473Z,3.11
2022-10-24T21:39:00.437Z,2.93
2022-10-24T21:41:33.653Z,2.90
2022-10-24T21:44:03.326Z,2.93
2022-10-24T21:46:36.951Z,2.88
2022-10-24T21:49:04.375Z,3.06
2022-10-24T21:51:36.564Z,2.90
2022-10-24T21:54:05.692Z,3.08
2022-10-24T21:56:37.044Z,2.79
2022-10-24T21:59:07.144Z,2.85
2022-10-24T22:01:43.909Z,2.70
2022-10-24T22:04:15.379Z,2.89
2022-10-24T22:06:46.357Z,2.88
2022-10-24T22:09:19.795Z,2.79
2022-10-24T22:11:47.879Z,2.87
2022-10-24T22:14:17.076Z,2.55
2022-10-24T22:16:48.019Z,2.71
2022-10-24T22:19:20.459Z,2.66
2022-10-24T22:22:42.616Z,2.78
2022-10-24T22:25:10.307Z,2.73
2022-10-24T22:27:38.463Z,2.46
2022-10-24T22:30:06.879Z,2.61
2022-10-24T22:32:35.844Z,2.43
2022-10-24T22:35:04.675Z,2.54
2022-10-24T22:37:33.161Z,2.46
2022-10-24T22:40:01.745Z,2.35
2022-10-24T22:42:30.491Z,2.28
2022-10-24T22:45:00.790Z,2.14
2022-10-24T22:47:55.382Z,2.32
2022-10-24T22:50:42.357Z,2.18
2022-10-24T22:53:37.202Z,2.30
2022-10-24T22:56:16.349Z,2.23
2022-10-24T22:58:45.920Z,2.19
2022-10-24T23:01:28.090Z,1.97
2022-10-24T23:04:25.330Z,2.08
2022-10-24T23:07:20.589Z,2.06
2022-10-24T23:09:49.941Z,2.17
2022-10-24T23:12:22.229Z,2.09
2022-10-24T23:14:58.317Z,1.86
2022-10-24T23:17:29.031Z,2.02
2022-10-24T23:20:00.533Z,2.09
2022-10-24T23:23:09.557Z,2.13
2022-10-24T23:25:52.832Z,1.86
2022-10-24T23:28:30.833Z,1.85
2022-10-24T23:30:58.344Z,1.97
2022-10-24T23:33:30.051Z,2.13
2022-10-24T23:35:59.599Z,2.07
2022-10-24T23:38:27.310Z,1.94
2022-10-24T23:40:56.532Z,1.89
2022-10-24T23:43:27.462Z,1.81
2022-10-24T23:46:03.293Z,2.13
2022-10-24T23:48:58.330Z,2.13
2022-10-24T23:51:33.350Z,1.85
2022-10-24T23:54:02.242Z,1.84
2022-10-24T23:56:30.331Z,1.91
2022-10-24T23:58:58.080Z,1.89
